Wetterdaten: Woche 24.04.17 - 30.04.17 (KW17)
Datum Zeit Temperatur Luftfeuchte Luftdruck Niederschlag Windrichtung Sonnenschein Solar Wind
24.04.2017 00:00 2,3 C 76 % 1021,9 hPa 0,0 l/m N 0,00 h 0 W/m 0,0 km/h (0 Bft)
24.04.2017 01:00 1,4 C 80 % 1021,3 hPa 0,0 l/m N 0,00 h 0 W/m 0,7 km/h (0 Bft)
24.04.2017 02:00 0,9 C 82 % 1020,4 hPa 0,0 l/m N 0,00 h 0 W/m 0,0 km/h (0 Bft)
24.04.2017 03:00 0,5 C 83 % 1019,7 hPa 0,0 l/m N 0,00 h 0 W/m 0,0 km/h (0 Bft)
24.04.2017 04:00 0,1 C 85 % 1019,2 hPa 0,0 l/m NO 0,00 h 0 W/m 0,4 km/h (0 Bft)
24.04.2017 05:00 -0,3 C 85 % 1018,5 hPa 0,0 l/m NO 0,00 h 0 W/m 0,9 km/h (0 Bft)
24.04.2017 06:00 -0,6 C 87 % 1018,0 hPa 0,0 l/m N 0,50 h 28 W/m 0,0 km/h (0 Bft)
24.04.2017 07:00 0,8 C 83 % 1018,2 hPa 0,0 l/m NO 0,75 h 129 W/m 1,5 km/h (1 Bft)
24.04.2017 08:00 3,5 C 73 % 1018,1 hPa 0,0 l/m NO 1,00 h 353 W/m 3,1 km/h (1 Bft)
24.04.2017 09:00 5,7 C 68 % 1017,8 hPa 0,0 l/m N 0,83 h 468 W/m 1,2 km/h (1 Bft)
24.04.2017 10:00 8,5 C 62 % 1017,3 hPa 0,0 l/m NO 0,92 h 605 W/m 3,1 km/h (1 Bft)
24.04.2017 11:00 11,0 C 58 % 1016,6 hPa 0,0 l/m S-SW 1,00 h 765 W/m 9,4 km/h (2 Bft)
24.04.2017 12:00 13,1 C 54 % 1015,7 hPa 0,0 l/m S-SW 1,00 h 823 W/m 12,9 km/h (3 Bft)
24.04.2017 13:00 14,6 C 50 % 1014,8 hPa 0,0 l/m SW 1,00 h 827 W/m 14,9 km/h (3 Bft)
24.04.2017 14:00 16,1 C 47 % 1013,8 hPa 0,0 l/m SW 1,00 h 778 W/m 12,9 km/h (3 Bft)
24.04.2017 15:00 17,2 C 44 % 1012,6 hPa 0,0 l/m SW 1,00 h 687 W/m 13,3 km/h (3 Bft)
24.04.2017 16:00 17,7 C 35 % 1011,7 hPa 0,0 l/m SW 1,00 h 549 W/m 16,0 km/h (3 Bft)
24.04.2017 17:00 17,3 C 38 % 1010,9 hPa 0,0 l/m W-SW 1,00 h 363 W/m 14,9 km/h (3 Bft)
24.04.2017 18:00 16,9 C 41 % 1010,4 hPa 0,0 l/m W-SW 0,75 h 191 W/m 16,9 km/h (3 Bft)
24.04.2017 19:00 15,4 C 43 % 1009,7 hPa 0,0 l/m W-SW 0,58 h 71 W/m 9,5 km/h (2 Bft)
24.04.2017 20:00 13,0 C 51 % 1009,2 hPa 0,0 l/m W-SW 0,25 h 14 W/m 2,4 km/h (1 Bft)
24.04.2017 21:00 10,6 C 59 % 1008,9 hPa 0,0 l/m N 0,00 h 0 W/m 0,4 km/h (0 Bft)
24.04.2017 22:00 9,4 C 65 % 1008,7 hPa 0,0 l/m N 0,00 h 0 W/m 0,4 km/h (0 Bft)
24.04.2017 23:00 8,8 C 69 % 1008,2 hPa 0,0 l/m N 0,00 h 0 W/m 0,9 km/h (0 Bft)
25.04.2017 00:00 7,3 C 75 % 1007,7 hPa 0,0 l/m N 0,00 h 0 W/m 0,0 km/h (0 Bft)
25.04.2017 01:00 6,1 C 81 % 1007,2 hPa 0,0 l/m N 0,00 h 0 W/m 0,0 km/h (0 Bft)
25.04.2017 02:00 6,4 C 83 % 1006,6 hPa 0,0 l/m N 0,00 h 0 W/m 0,0 km/h (0 Bft)
25.04.2017 03:00 8,2 C 80 % 1006,3 hPa 0,0 l/m W-SW 0,00 h 0 W/m 3,9 km/h (1 Bft)
25.04.2017 04:00 9,4 C 77 % 1005,9 hPa 0,0 l/m W-SW 0,00 h 0 W/m 12,2 km/h (2 Bft)
25.04.2017 05:00 11,5 C 73 % 1005,4 hPa 0,0 l/m W-SW 0,00 h 0 W/m 27,6 km/h (4 Bft)
25.04.2017 06:00 10,6 C 81 % 1005,4 hPa 0,2 l/m W-SW 0,00 h 7 W/m 21,7 km/h (4 Bft)
25.04.2017 07:00 9,8 C 88 % 1005,7 hPa 0,8 l/m W 0,00 h 21 W/m 16,2 km/h (3 Bft)
25.04.2017 08:00 10,0 C 91 % 1005,8 hPa 0,4 l/m SW 0,17 h 146 W/m 15,7 km/h (3 Bft)
25.04.2017 09:00 11,8 C 84 % 1005,6 hPa 0,0 l/m W-SW 0,25 h 262 W/m 18,1 km/h (3 Bft)
25.04.2017 10:00 12,2 C 79 % 1005,6 hPa 0,0 l/m W-SW 0,17 h 289 W/m 18,4 km/h (3 Bft)
25.04.2017 11:00 13,2 C 74 % 1005,5 hPa 0,0 l/m W-SW 0,25 h 421 W/m 17,7 km/h (3 Bft)
25.04.2017 12:00 13,5 C 73 % 1005,3 hPa 0,0 l/m S-SW 0,08 h 286 W/m 20,6 km/h (4 Bft)
25.04.2017 13:00 13,7 C 75 % 1004,9 hPa 0,0 l/m SW 0,25 h 400 W/m 19,6 km/h (3 Bft)
25.04.2017 14:00 13,5 C 73 % 1004,5 hPa 0,0 l/m SW 0,00 h 217 W/m 17,0 km/h (3 Bft)
25.04.2017 15:00 10,8 C 81 % 1004,6 hPa 0,2 l/m W 0,00 h 95 W/m 21,1 km/h (4 Bft)
25.04.2017 16:00 9,7 C 90 % 1004,7 hPa 1,0 l/m W 0,00 h 83 W/m 9,9 km/h (2 Bft)
25.04.2017 17:00 9,4 C 94 % 1004,9 hPa 1,6 l/m SW 0,00 h 58 W/m 15,0 km/h (3 Bft)
25.04.2017 18:00 8,4 C 94 % 1005,2 hPa 3,0 l/m W-SW 0,00 h 23 W/m 12,1 km/h (2 Bft)
25.04.2017 19:00 7,2 C 96 % 1005,3 hPa 5,0 l/m N-NO 0,00 h 8 W/m 5,5 km/h (1 Bft)
25.04.2017 20:00 6,4 C 96 % 1005,5 hPa 4,4 l/m NO 0,00 h 0 W/m 8,2 km/h (2 Bft)
25.04.2017 21:00 5,7 C 96 % 1005,9 hPa 4,2 l/m NO 0,00 h 0 W/m 11,3 km/h (2 Bft)
25.04.2017 22:00 5,1 C 96 % 1005,9 hPa 3,8 l/m NO 0,00 h 0 W/m 5,3 km/h (1 Bft)
25.04.2017 23:00 4,0 C 96 % 1005,7 hPa 2,4 l/m NO 0,00 h 0 W/m 13,0 km/h (3 Bft)
26.04.2017 00:00 2,6 C 96 % 1005,7 hPa 2,2 l/m NO 0,00 h 0 W/m 14,0 km/h (3 Bft)
26.04.2017 01:00 1,2 C 96 % 1005,7 hPa 0,6 l/m NO 0,00 h 0 W/m 3,6 km/h (1 Bft)
26.04.2017 02:00 0,6 C 97 % 1005,9 hPa 0,0 l/m N 0,00 h 0 W/m 1,1 km/h (0 Bft)
26.04.2017 03:00 0,6 C 97 % 1006,0 hPa 2,6 l/m NO 0,00 h 0 W/m 1,7 km/h (1 Bft)
26.04.2017 04:00 0,6 C 97 % 1005,9 hPa 3,2 l/m N 0,00 h 0 W/m 0,0 km/h (0 Bft)
26.04.2017 05:00 0,5 C 98 % 1005,9 hPa 1,8 l/m N 0,00 h 0 W/m 0,0 km/h (0 Bft)
26.04.2017 06:00 0,5 C 98 % 1006,0 hPa 3,0 l/m N 0,00 h 5 W/m 0,0 km/h (0 Bft)
26.04.2017 07:00 0,6 C 98 % 1006,5 hPa 2,2 l/m N 0,00 h 11 W/m 0,0 km/h (0 Bft)
26.04.2017 08:00 0,7 C 98 % 1006,8 hPa 2,4 l/m NO 0,00 h 31 W/m 0,8 km/h (0 Bft)
26.04.2017 09:00 0,8 C 98 % 1007,2 hPa 2,0 l/m N-NO 0,00 h 80 W/m 6,3 km/h (2 Bft)
26.04.2017 10:00 1,0 C 98 % 1007,6 hPa 1,6 l/m N-NO 0,00 h 146 W/m 6,6 km/h (2 Bft)
26.04.2017 11:00 1,5 C 98 % 1008,3 hPa 0,8 l/m N-NO 0,00 h 252 W/m 9,3 km/h (2 Bft)
26.04.2017 12:00 1,6 C 97 % 1008,9 hPa 0,6 l/m N-NO 0,00 h 255 W/m 8,4 km/h (2 Bft)
26.04.2017 13:00 2,0 C 97 % 1009,1 hPa 0,2 l/m NO 0,00 h 267 W/m 11,2 km/h (2 Bft)
26.04.2017 14:00 2,1 C 96 % 1009,6 hPa 0,4 l/m NO 0,00 h 249 W/m 7,4 km/h (2 Bft)
26.04.2017 15:00 2,4 C 96 % 1009,9 hPa 0,4 l/m NO 0,00 h 259 W/m 4,7 km/h (1 Bft)
26.04.2017 16:00 2,5 C 96 % 1010,3 hPa 0,0 l/m NO 0,00 h 213 W/m 6,0 km/h (2 Bft)
26.04.2017 17:00 2,6 C 95 % 1010,3 hPa 0,0 l/m NO 0,00 h 174 W/m 6,6 km/h (2 Bft)
26.04.2017 18:00 2,6 C 95 % 1010,6 hPa 0,0 l/m NO 0,00 h 90 W/m 4,9 km/h (1 Bft)
26.04.2017 19:00 2,5 C 95 % 1010,5 hPa 0,0 l/m NO 0,17 h 57 W/m 3,1 km/h (1 Bft)
26.04.2017 20:00 2,2 C 96 % 1010,9 hPa 0,0 l/m N 0,33 h 26 W/m 0,0 km/h (0 Bft)
26.04.2017 21:00 1,8 C 97 % 1011,5 hPa 0,8 l/m N 0,00 h 0 W/m 0,0 km/h (0 Bft)
26.04.2017 22:00 1,6 C 97 % 1011,8 hPa 0,2 l/m N 0,00 h 0 W/m 0,0 km/h (0 Bft)
26.04.2017 23:00 1,5 C 98 % 1011,3 hPa 0,0 l/m N 0,00 h 0 W/m 0,4 km/h (0 Bft)
27.04.2017 00:00 1,4 C 98 % 1011,2 hPa 0,0 l/m NO 0,00 h 0 W/m 2,9 km/h (1 Bft)
27.04.2017 01:00 1,4 C 98 % 1011,2 hPa 0,2 l/m NO 0,00 h 0 W/m 0,9 km/h (0 Bft)
27.04.2017 02:00 1,3 C 98 % 1011,6 hPa 0,6 l/m N 0,00 h 0 W/m 0,8 km/h (0 Bft)
27.04.2017 03:00 1,3 C 98 % 1011,5 hPa 0,4 l/m N 0,00 h 0 W/m 0,0 km/h (0 Bft)
27.04.2017 04:00 1,3 C 98 % 1011,7 hPa 0,0 l/m N 0,00 h 0 W/m 0,0 km/h (0 Bft)
27.04.2017 05:00 1,1 C 99 % 1012,0 hPa 0,2 l/m N 0,00 h 0 W/m 0,0 km/h (0 Bft)
27.04.2017 06:00 0,9 C 98 % 1012,4 hPa 0,4 l/m N 0,00 h 12 W/m 0,0 km/h (0 Bft)
27.04.2017 07:00 1,0 C 99 % 1012,7 hPa 0,4 l/m N 0,00 h 30 W/m 0,0 km/h (0 Bft)
27.04.2017 08:00 1,0 C 99 % 1013,3 hPa 0,4 l/m N 0,00 h 60 W/m 0,0 km/h (0 Bft)
27.04.2017 09:00 1,2 C 99 % 1013,4 hPa 0,6 l/m N 0,00 h 138 W/m 0,0 km/h (0 Bft)
27.04.2017 10:00 2,0 C 99 % 1013,7 hPa 0,2 l/m N 0,00 h 190 W/m 0,3 km/h (0 Bft)
27.04.2017 11:00 2,7 C 98 % 1013,9 hPa 0,2 l/m N 0,00 h 175 W/m 0,1 km/h (0 Bft)
27.04.2017 12:00 3,0 C 97 % 1013,9 hPa 0,4 l/m N 0,00 h 252 W/m 0,7 km/h (0 Bft)
27.04.2017 13:00 3,0 C 96 % 1013,8 hPa 0,6 l/m NO 0,00 h 226 W/m 1,3 km/h (1 Bft)
27.04.2017 14:00 3,3 C 96 % 1013,8 hPa 0,2 l/m NO 0,00 h 178 W/m 1,7 km/h (1 Bft)
27.04.2017 15:00 2,6 C 97 % 1013,7 hPa 1,0 l/m NO 0,00 h 117 W/m 2,4 km/h (1 Bft)
27.04.2017 16:00 2,6 C 97 % 1013,5 hPa 0,6 l/m NO 0,00 h 129 W/m 2,1 km/h (1 Bft)
27.04.2017 17:00 2,7 C 97 % 1013,3 hPa 0,4 l/m N 0,00 h 79 W/m 0,9 km/h (0 Bft)
27.04.2017 18:00 2,5 C 97 % 1013,0 hPa 0,6 l/m N 0,00 h 37 W/m 0,0 km/h (0 Bft)
27.04.2017 19:00 2,0 C 97 % 1012,8 hPa 0,8 l/m NO 0,00 h 15 W/m 0,9 km/h (0 Bft)
27.04.2017 20:00 1,4 C 97 % 1013,1 hPa 0,6 l/m N 0,00 h 6 W/m 0,0 km/h (0 Bft)
27.04.2017 21:00 0,8 C 98 % 1013,1 hPa 0,2 l/m N 0,00 h 0 W/m 0,0 km/h (0 Bft)
27.04.2017 22:00 0,6 C 98 % 1012,9 hPa 1,4 l/m N 0,00 h 0 W/m 0,0 km/h (0 Bft)
27.04.2017 23:00 0,6 C 98 % 1012,5 hPa 1,8 l/m NO 0,00 h 0 W/m 1,1 km/h (0 Bft)
28.04.2017 00:00 0,7 C 98 % 1012,1 hPa 0,2 l/m N 0,00 h 0 W/m 0,8 km/h (0 Bft)
28.04.2017 01:00 0,8 C 98 % 1011,5 hPa 0,4 l/m N 0,00 h 0 W/m 0,0 km/h (0 Bft)
28.04.2017 02:00 0,9 C 99 % 1010,7 hPa 0,2 l/m N 0,00 h 0 W/m 0,0 km/h (0 Bft)
28.04.2017 03:00 1,2 C 99 % 1010,8 hPa 0,4 l/m N 0,00 h 0 W/m 0,0 km/h (0 Bft)
28.04.2017 04:00 1,1 C 99 % 1010,5 hPa 1,0 l/m N 0,00 h 0 W/m 0,0 km/h (0 Bft)
28.04.2017 05:00 0,8 C 99 % 1010,4 hPa 0,8 l/m N 0,00 h 0 W/m 0,0 km/h (0 Bft)
28.04.2017 06:00 0,7 C 99 % 1010,3 hPa 1,0 l/m N 0,00 h 7 W/m 0,0 km/h (0 Bft)
28.04.2017 07:00 0,7 C 99 % 1010,6 hPa 0,6 l/m N 0,00 h 18 W/m 0,0 km/h (0 Bft)
28.04.2017 08:00 0,9 C 99 % 1010,8 hPa 1,2 l/m N 0,00 h 33 W/m 0,0 km/h (0 Bft)
28.04.2017 09:00 1,2 C 99 % 1011,2 hPa 0,4 l/m N 0,00 h 50 W/m 0,0 km/h (0 Bft)
28.04.2017 10:00 1,8 C 99 % 1011,6 hPa 1,2 l/m N 0,00 h 124 W/m 0,0 km/h (0 Bft)
28.04.2017 11:00 2,6 C 99 % 1012,0 hPa 0,8 l/m N 0,00 h 232 W/m 0,0 km/h (0 Bft)
28.04.2017 12:00 3,4 C 98 % 1012,6 hPa 0,6 l/m N 0,00 h 196 W/m 0,0 km/h (0 Bft)
28.04.2017 13:00 3,2 C 98 % 1013,3 hPa 1,4 l/m N 0,00 h 134 W/m 0,0 km/h (0 Bft)
28.04.2017 14:00 3,8 C 97 % 1013,9 hPa 0,4 l/m N 0,00 h 241 W/m 0,0 km/h (0 Bft)
28.04.2017 15:00 4,4 C 95 % 1014,4 hPa 0,6 l/m N 0,00 h 197 W/m 0,0 km/h (0 Bft)
28.04.2017 16:00 4,5 C 95 % 1014,6 hPa 0,0 l/m N 0,33 h 285 W/m 0,0 km/h (0 Bft)
28.04.2017 17:00 4,7 C 93 % 1015,1 hPa 0,0 l/m N 0,42 h 223 W/m 0,0 km/h (0 Bft)
28.04.2017 18:00 4,5 C 92 % 1015,6 hPa 0,0 l/m N 0,33 h 169 W/m 0,0 km/h (0 Bft)
28.04.2017 19:00 3,6 C 95 % 1016,1 hPa 0,0 l/m N 0,08 h 48 W/m 0,0 km/h (0 Bft)
28.04.2017 20:00 3,3 C 96 % 1016,7 hPa 0,0 l/m N 0,00 h 9 W/m 0,0 km/h (0 Bft)
28.04.2017 21:00 2,9 C 96 % 1017,3 hPa 0,0 l/m SW 0,00 h 0 W/m 0,6 km/h (0 Bft)
28.04.2017 22:00 2,3 C 96 % 1017,6 hPa 0,0 l/m SW 0,00 h 0 W/m 2,5 km/h (1 Bft)
28.04.2017 23:00 1,9 C 96 % 1017,8 hPa 0,0 l/m SW 0,00 h 0 W/m 7,0 km/h (2 Bft)
29.04.2017 00:00 1,7 C 96 % 1018,2 hPa 0,0 l/m SW 0,00 h 0 W/m 6,0 km/h (2 Bft)
29.04.2017 01:00 1,3 C 97 % 1018,3 hPa 0,0 l/m N 0,00 h 0 W/m 0,8 km/h (0 Bft)
29.04.2017 02:00 1,3 C 97 % 1018,2 hPa 0,0 l/m SW 0,00 h 0 W/m 0,8 km/h (0 Bft)
29.04.2017 03:00 1,2 C 97 % 1018,3 hPa 0,0 l/m N 0,00 h 0 W/m 0,0 km/h (0 Bft)
29.04.2017 04:00 1,3 C 97 % 1018,5 hPa 0,0 l/m SW 0,00 h 0 W/m 1,7 km/h (1 Bft)
29.04.2017 05:00 1,1 C 98 % 1018,4 hPa 0,0 l/m N 0,00 h 0 W/m 0,0 km/h (0 Bft)
29.04.2017 06:00 0,9 C 98 % 1018,3 hPa 0,0 l/m N 0,00 h 12 W/m 0,0 km/h (0 Bft)
29.04.2017 07:00 1,4 C 98 % 1018,6 hPa 0,0 l/m SW 0,00 h 71 W/m 6,0 km/h (2 Bft)
29.04.2017 08:00 2,7 C 98 % 1018,6 hPa 0,0 l/m S-SW 0,67 h 321 W/m 10,3 km/h (2 Bft)
29.04.2017 09:00 4,7 C 94 % 1018,5 hPa 0,0 l/m S-SW 0,83 h 445 W/m 11,0 km/h (2 Bft)
29.04.2017 10:00 6,2 C 88 % 1018,4 hPa 0,0 l/m SW 0,67 h 552 W/m 10,2 km/h (2 Bft)
29.04.2017 11:00 8,5 C 78 % 1018,2 hPa 0,0 l/m S-SW 1,00 h 869 W/m 9,4 km/h (2 Bft)
29.04.2017 12:00 9,9 C 66 % 1017,6 hPa 0,0 l/m SW 0,83 h 761 W/m 9,4 km/h (2 Bft)
29.04.2017 13:00 10,5 C 60 % 1017,0 hPa 0,0 l/m SW 0,92 h 837 W/m 10,2 km/h (2 Bft)
29.04.2017 14:00 11,4 C 50 % 1016,5 hPa 0,0 l/m S-SW 0,42 h 479 W/m 10,9 km/h (2 Bft)
29.04.2017 15:00 10,9 C 49 % 1016,1 hPa 0,0 l/m O-SO 0,08 h 329 W/m 4,7 km/h (1 Bft)
29.04.2017 16:00 12,8 C 45 % 1015,5 hPa 0,0 l/m O 0,83 h 700 W/m 12,3 km/h (3 Bft)
29.04.2017 17:00 11,5 C 46 % 1015,5 hPa 0,0 l/m O 0,08 h 176 W/m 8,1 km/h (2 Bft)
29.04.2017 18:00 12,0 C 44 % 1015,3 hPa 0,0 l/m O-SO 1,00 h 237 W/m 8,0 km/h (2 Bft)
29.04.2017 19:00 11,0 C 45 % 1014,9 hPa 0,0 l/m O 0,17 h 67 W/m 10,8 km/h (2 Bft)
29.04.2017 20:00 8,5 C 53 % 1014,9 hPa 0,0 l/m O-SO 0,08 h 12 W/m 1,9 km/h (1 Bft)
29.04.2017 21:00 5,0 C 72 % 1015,0 hPa 0,0 l/m N 0,00 h 0 W/m 0,0 km/h (0 Bft)
29.04.2017 22:00 3,5 C 77 % 1014,9 hPa 0,0 l/m N 0,00 h 0 W/m 0,0 km/h (0 Bft)
29.04.2017 23:00 2,8 C 81 % 1014,6 hPa 0,0 l/m N 0,00 h 0 W/m 0,0 km/h (0 Bft)
30.04.2017 00:00 2,5 C 83 % 1014,3 hPa 0,0 l/m N 0,00 h 0 W/m 0,1 km/h (0 Bft)
30.04.2017 01:00 2,1 C 87 % 1013,9 hPa 0,0 l/m N 0,00 h 0 W/m 0,3 km/h (0 Bft)
30.04.2017 02:00 1,5 C 89 % 1013,6 hPa 0,0 l/m N 0,00 h 0 W/m 0,0 km/h (0 Bft)
30.04.2017 03:00 1,0 C 90 % 1013,6 hPa 0,0 l/m N 0,00 h 0 W/m 0,0 km/h (0 Bft)
30.04.2017 04:00 0,5 C 92 % 1013,4 hPa 0,0 l/m N 0,00 h 0 W/m 0,0 km/h (0 Bft)
30.04.2017 05:00 0,2 C 93 % 1013,1 hPa 0,0 l/m N 0,00 h 0 W/m 0,7 km/h (0 Bft)
30.04.2017 06:00 -0,1 C 94 % 1013,1 hPa 0,0 l/m N 0,58 h 40 W/m 0,1 km/h (0 Bft)
30.04.2017 07:00 1,8 C 92 % 1013,2 hPa 0,0 l/m N 0,92 h 186 W/m 0,3 km/h (0 Bft)
30.04.2017 08:00 4,4 C 84 % 1013,0 hPa 0,0 l/m O 1,00 h 391 W/m 6,8 km/h (2 Bft)
30.04.2017 09:00 7,0 C 77 % 1012,5 hPa 0,0 l/m O 0,83 h 469 W/m 7,8 km/h (2 Bft)
30.04.2017 10:00 9,7 C 68 % 1011,8 hPa 0,0 l/m O 1,00 h 697 W/m 9,9 km/h (2 Bft)
30.04.2017 11:00 12,1 C 59 % 1011,1 hPa 0,0 l/m O-NO 1,00 h 803 W/m 11,0 km/h (2 Bft)
30.04.2017 12:00 14,2 C 49 % 1010,4 hPa 0,0 l/m O-SO 1,00 h 854 W/m 14,9 km/h (3 Bft)
30.04.2017 13:00 15,8 C 42 % 1009,6 hPa 0,0 l/m O-SO 1,00 h 858 W/m 14,9 km/h (3 Bft)
30.04.2017 14:00 16,9 C 40 % 1009,0 hPa 0,0 l/m O 1,00 h 818 W/m 14,2 km/h (3 Bft)
30.04.2017 15:00 17,4 C 39 % 1008,2 hPa 0,0 l/m O 1,00 h 725 W/m 17,3 km/h (3 Bft)
30.04.2017 16:00 17,7 C 38 % 1007,5 hPa 0,0 l/m O-NO 1,00 h 594 W/m 14,6 km/h (3 Bft)
30.04.2017 17:00 17,7 C 39 % 1006,8 hPa 0,0 l/m O 1,00 h 426 W/m 16,2 km/h (3 Bft)
30.04.2017 18:00 16,9 C 42 % 1006,0 hPa 0,0 l/m O 1,00 h 226 W/m 15,0 km/h (3 Bft)
30.04.2017 19:00 15,3 C 49 % 1005,3 hPa 0,0 l/m O 0,25 h 77 W/m 15,8 km/h (3 Bft)
30.04.2017 20:00 13,0 C 57 % 1005,3 hPa 0,0 l/m O 0,08 h 12 W/m 10,3 km/h (2 Bft)
30.04.2017 21:00 10,8 C 65 % 1005,3 hPa 0,0 l/m O 0,00 h 0 W/m 2,3 km/h (1 Bft)
30.04.2017 22:00 9,4 C 71 % 1005,5 hPa 0,0 l/m N 0,00 h 0 W/m 2,8 km/h (1 Bft)
30.04.2017 23:00 8,3 C 76 % 1005,2 hPa 0,0 l/m N 0,00 h 0 W/m 0,0 km/h (0 Bft)
Min-Datum _ 24.04.17 24.04.17 25.04.17 - - - - 24.04.17
_ Min-Zeit 06:30 16:15 14:20 - - - - 00:00
Minimum _ -0,8 C 33 % 1004,3 hPa - - - - 0,0 km/h (0 Bft)
Max-Datum _ 24.04.17 28.04.17 24.04.17 25.04.17 - 24.04.17 29.04.17 25.04.17
_ Max-Zeit 16:35 08:45 00:15 19:00 - 06:30 11:25 05:05
Maximum _ 17,9 C 100 % 1022,1 hPa 5,0 l/m - 0,08 h 951 W/m 37,0 km/h
W-SW (5 Bft)
Durchschnitt _ 5,5 C 83 % 1011,7 hPa #75,4 l/m W-SW #35:40 h 267 W/m 5,2 km/h (1 Bft)